Time;durP1;ratioP1;P1;durP2;ratioP2;P2;SDS_P1;SDS_P2;PMS_P1;PMS_P2;Temp;Humidity;BMP_temperature;BMP_pressure;BME280_temperature;BME280_humidity;BME280_pressure;Samples;Min_cycle;Max_cycle;Signal;HPM_P1;HPM_P2
2022/08/28 00:01:13;;;;;;;11.40;3.67;;;;;;;17.37;67.64;100962.41;5106559;28;20576;-83
2022/08/28 00:03:40;;;;;;;10.70;3.23;;;;;;;17.34;67.75;100963.50;5105317;28;20212;-81
2022/08/28 00:06:06;;;;;;;7.60;2.43;;;;;;;17.30;67.89;100962.06;5110028;28;20277;-83
2022/08/28 00:08:33;;;;;;;9.73;2.80;;;;;;;17.27;67.86;100959.63;5101519;28;20203;-83
2022/08/28 00:11:00;;;;;;;9.63;3.03;;;;;;;17.21;68.11;100950.25;5105177;28;20202;-82
2022/08/28 00:13:27;;;;;;;10.23;2.87;;;;;;;17.17;68.32;100954.19;5103635;28;20693;-81
2022/08/28 00:15:59;;;;;;;10.43;2.97;;;;;;;17.12;68.39;100961.81;5105611;28;20202;-82
2022/08/28 00:18:26;;;;;;;14.67;4.03;;;;;;;17.05;68.59;100957.94;5105669;28;20649;-82
2022/08/28 00:20:53;;;;;;;9.87;3.37;;;;;;;16.99;68.95;100958.47;5107089;28;20300;-81
2022/08/28 00:23:20;;;;;;;18.10;3.70;;;;;;;16.93;69.03;100967.91;5104684;28;20237;-81
2022/08/28 00:25:47;;;;;;;12.10;3.57;;;;;;;16.88;69.14;100961.19;5102751;27;20206;-82
2022/08/28 00:28:14;;;;;;;6.60;3.40;;;;;;;16.82;69.59;100967.13;5112511;27;20213;-82
2022/08/28 00:30:45;;;;;;;9.10;3.53;;;;;;;16.78;69.72;100971.03;5114335;27;20763;-81
2022/08/28 00:33:15;;;;;;;9.00;3.73;;;;;;;16.73;69.95;100978.63;5106289;28;20226;-83
2022/08/28 00:35:43;;;;;;;8.67;3.40;;;;;;;16.66;70.20;100973.75;5113656;27;20289;-84
2022/08/28 00:38:11;;;;;;;11.83;3.60;;;;;;;16.62;70.32;100969.63;5108364;27;20203;-83
2022/08/28 00:40:40;;;;;;;11.07;3.80;;;;;;;16.56;70.60;100972.81;5110664;27;20210;-83
2022/08/28 00:43:08;;;;;;;9.53;3.60;;;;;;;16.54;70.92;100973.91;5117052;27;20667;-83
2022/08/28 00:45:35;;;;;;;6.93;2.80;;;;;;;16.49;70.97;100973.44;5110952;27;20204;-83
2022/08/28 00:48:02;;;;;;;11.87;3.53;;;;;;;16.47;71.19;100976.28;5110543;27;20692;-81
2022/08/28 00:52:04;;;;;;;8.43;3.30;;;;;;;16.44;71.28;100981.03;5108196;27;20206;-82
2022/08/28 00:53:20;;;;;;;12.07;4.07;;;;;;;16.39;71.55;100981.41;5104855;28;20229;-82
2022/08/28 00:55:48;;;;;;;8.43;4.20;;;;;;;16.37;71.68;100975.31;5104352;27;20555;-83
2022/08/28 00:58:15;;;;;;;12.80;3.53;;;;;;;16.34;71.99;100980.94;5108763;27;20222;-82
2022/08/28 01:00:42;;;;;;;11.13;3.50;;;;;;;16.32;72.06;100969.44;5110493;27;20271;-81
2022/08/28 01:03:09;;;;;;;10.33;4.07;;;;;;;16.28;72.11;100963.50;5107838;27;20298;-81
2022/08/28 01:05:42;;;;;;;10.20;3.33;;;;;;;16.27;72.48;100971.69;5112691;27;20206;-81
2022/08/28 01:08:09;;;;;;;10.27;4.03;;;;;;;16.25;72.57;100979.88;5109518;27;20570;-81
2022/08/28 01:10:36;;;;;;;7.63;3.43;;;;;;;16.23;72.81;100971.06;5112536;27;20206;-81
2022/08/28 01:13:03;;;;;;;8.77;3.37;;;;;;;16.22;72.96;100969.34;5105401;27;20241;-82
2022/08/28 01:15:34;;;;;;;11.87;3.63;;;;;;;16.23;73.05;100970.22;5112581;27;20218;-81
2022/08/28 01:18:05;;;;;;;11.07;4.20;;;;;;;16.22;73.33;100973.88;5105123;27;20220;-83
2022/08/28 01:20:36;;;;;;;12.80;4.07;;;;;;;16.20;73.43;100974.00;5116031;27;20198;-83
2022/08/28 01:23:12;;;;;;;9.37;3.87;;;;;;;16.20;73.53;100975.84;5108271;27;20205;-83
2022/08/28 01:25:41;;;;;;;13.33;3.40;;;;;;;16.18;73.75;100983.16;5102964;27;20804;-81
2022/08/28 01:28:11;;;;;;;11.93;3.80;;;;;;;16.16;73.75;100974.38;5111108;27;20226;-81
2022/08/28 01:30:40;;;;;;;16.23;3.93;;;;;;;16.15;73.83;100975.34;5106774;27;20212;-83
2022/08/28 01:33:07;;;;;;;8.77;3.60;;;;;;;16.15;74.07;100973.50;5102509;27;20226;-82
2022/08/28 01:35:38;;;;;;;12.97;3.53;;;;;;;16.16;74.13;100977.06;5106861;27;20199;-83
2022/08/28 01:38:05;;;;;;;10.40;3.53;;;;;;;16.15;74.11;100983.41;5112837;28;20687;-82
2022/08/28 01:40:35;;;;;;;13.70;4.23;;;;;;;16.14;74.22;100981.69;5115981;27;20201;-83
2022/08/28 01:43:10;;;;;;;9.13;3.23;;;;;;;16.12;74.27;100983.69;5103825;27;20712;-83
2022/08/28 01:45:37;;;;;;;11.63;3.40;;;;;;;16.13;74.75;100986.22;5109083;27;20206;-83
2022/08/28 01:48:05;;;;;;;10.07;3.67;;;;;;;16.13;74.58;100985.34;5110640;28;20222;-83
2022/08/28 01:50:33;;;;;;;10.37;3.67;;;;;;;16.13;74.57;100985.34;5109095;27;20608;-82
2022/08/28 01:53:00;;;;;;;7.57;3.80;;;;;;;16.12;74.56;100994.44;5120304;27;20226;-81
2022/08/28 01:55:26;;;;;;;10.00;3.30;;;;;;;16.12;74.61;100989.88;5129950;27;20195;-82
2022/08/28 01:57:55;;;;;;;10.87;3.77;;;;;;;16.13;74.97;100998.78;5118704;27;20226;-81
2022/08/28 02:00:26;;;;;;;14.60;4.20;;;;;;;16.11;75.21;100985.50;5129822;27;20703;-82
2022/08/28 02:02:54;;;;;;;10.67;3.33;;;;;;;16.11;74.83;100990.03;5118753;27;20203;-82
2022/08/28 02:05:21;;;;;;;17.10;4.07;;;;;;;16.10;75.07;100983.81;5109265;27;20201;-82
2022/08/28 02:07:48;;;;;;;8.67;3.50;;;;;;;16.11;74.99;100982.81;5127481;27;20220;-82
2022/08/28 02:10:15;;;;;;;8.30;3.53;;;;;;;16.09;75.00;100990.16;5118701;27;20630;-81
2022/08/28 02:12:42;;;;;;;11.07;3.40;;;;;;;16.08;75.13;100992.97;5126713;27;20228;-82
2022/08/28 02:15:09;;;;;;;11.30;3.43;;;;;;;16.09;75.18;101000.03;5115192;27;20682;-83
2022/08/28 02:17:37;;;;;;;13.50;3.60;;;;;;;16.09;75.15;101000.03;5121283;27;20221;-82
2022/08/28 02:20:06;;;;;;;12.00;3.57;;;;;;;16.09;75.12;101006.28;5125432;27;20265;-82
2022/08/28 02:22:32;;;;;;;9.80;3.90;;;;;;;16.10;75.04;100997.25;5125774;27;20240;-82
2022/08/28 02:24:59;;;;;;;9.23;3.57;;;;;;;16.09;75.04;100992.84;5121149;27;20199;-82
2022/08/28 02:27:25;;;;;;;12.73;3.13;;;;;;;16.08;74.98;100992.97;5120291;27;20217;-84
2022/08/28 02:29:52;;;;;;;8.17;3.33;;;;;;;16.08;74.96;100992.97;5109385;27;20219;-82
2022/08/28 02:32:19;;;;;;;13.80;3.83;;;;;;;16.07;74.97;100993.94;5120186;27;20206;-82
2022/08/28 02:34:47;;;;;;;7.73;2.97;;;;;;;16.08;74.96;100999.19;5117885;27;20234;-81
2022/08/28 02:37:13;;;;;;;8.97;3.43;;;;;;;16.08;75.15;100999.19;5123111;27;20220;-82
2022/08/28 02:39:40;;;;;;;12.20;4.00;;;;;;;16.07;75.01;100986.72;5116665;27;20224;-81
2022/08/28 02:42:07;;;;;;;10.67;3.53;;;;;;;16.07;74.86;100992.09;5114510;27;20253;-81
2022/08/28 02:44:34;;;;;;;13.43;3.53;;;;;;;16.06;75.02;100990.41;5107100;27;20198;-81
2022/08/28 02:47:01;;;;;;;12.60;4.10;;;;;;;16.06;75.28;100985.03;5123357;27;20257;-81
2022/08/28 02:49:27;;;;;;;11.00;3.60;;;;;;;16.06;75.09;100985.03;5122938;27;20202;-81
2022/08/28 02:51:56;;;;;;;10.07;3.67;;;;;;;16.07;75.37;100991.25;5133966;27;20206;-81
2022/08/28 02:54:23;;;;;;;12.33;3.40;;;;;;;16.07;75.21;100993.94;5123129;27;20631;-81
2022/08/28 02:56:49;;;;;;;11.00;3.60;;;;;;;16.07;75.13;100991.25;5119749;27;20236;-80
2022/08/28 02:59:16;;;;;;;9.60;3.27;;;;;;;16.06;75.24;100990.41;5114926;27;20209;-82
2022/08/28 03:01:43;;;;;;;11.20;3.53;;;;;;;16.07;75.28;100992.09;5123394;27;20208;-80
2022/08/28 03:04:09;;;;;;;12.10;3.90;;;;;;;16.07;75.32;100988.56;5109464;28;20215;-84
2022/08/28 03:06:36;;;;;;;12.13;3.63;;;;;;;16.06;75.12;100994.91;5113444;27;20253;-82
2022/08/28 03:09:05;;;;;;;13.13;4.23;;;;;;;16.07;75.54;100985.88;5118845;27;20231;-81
2022/08/28 03:11:32;;;;;;;12.73;4.03;;;;;;;16.06;75.17;100986.84;5113108;27;20201;-83
2022/08/28 03:14:02;;;;;;;10.23;3.53;;;;;;;16.06;75.35;100989.53;5116708;27;20635;-83
2022/08/28 03:16:28;;;;;;;9.90;3.47;;;;;;;16.04;75.55;100988.81;5103220;27;20227;-82
2022/08/28 03:18:55;;;;;;;10.40;3.93;;;;;;;16.02;75.53;100993.44;5110583;27;20200;-81
2022/08/28 03:21:22;;;;;;;13.33;4.07;;;;;;;15.98;75.56;100991.00;5105897;27;20274;-82
2022/08/28 03:23:47;;;;;;;8.43;3.60;;;;;;;15.98;75.30;101003.56;5117804;27;20282;-82
2022/08/28 03:26:19;;;;;;;8.23;3.90;;;;;;;15.96;75.46;100995.63;5104497;27;20219;-83
2022/08/28 03:28:48;;;;;;;9.57;3.20;;;;;;;15.93;75.67;101001.28;5121563;27;20202;-83
2022/08/28 03:31:18;;;;;;;12.63;3.87;;;;;;;15.93;75.83;101001.28;5109200;28;20201;-82
2022/08/28 03:33:45;;;;;;;8.73;3.63;;;;;;;15.92;75.71;101004.09;5123774;27;20282;-82
2022/08/28 03:36:14;;;;;;;10.10;3.70;;;;;;;15.92;75.60;100998.72;5113685;27;20217;-80
2022/08/28 03:38:41;;;;;;;7.77;3.70;;;;;;;15.91;75.54;101003.22;5111464;28;20229;-81
2022/08/28 03:41:10;;;;;;;10.87;3.90;;;;;;;15.91;75.74;101000.56;5120824;28;20198;-81
2022/08/28 03:43:37;;;;;;;9.43;3.67;;;;;;;15.91;75.60;100997.88;5119788;28;20686;-82
2022/08/28 03:46:06;;;;;;;11.33;3.97;;;;;;;15.91;75.98;100997.00;5119024;28;20231;-81
2022/08/28 03:48:34;;;;;;;6.57;3.23;;;;;;;15.91;75.42;100991.63;5117796;28;20538;-81
2022/08/28 03:51:02;;;;;;;9.73;3.33;;;;;;;15.91;75.54;100994.31;5099811;28;20212;-81
2022/08/28 03:53:29;;;;;;;9.60;3.10;;;;;;;15.90;75.54;100993.47;5107816;28;20635;-81
2022/08/28 03:55:57;;;;;;;11.47;3.57;;;;;;;15.90;75.80;100996.16;5105314;28;20205;-83
2022/08/28 03:58:24;;;;;;;8.90;3.37;;;;;;;15.90;75.86;101003.34;5108468;28;20202;-83
2022/08/28 04:00:52;;;;;;;11.57;3.50;;;;;;;15.87;75.68;101001.75;5121545;27;20219;-83
2022/08/28 04:03:19;;;;;;;14.63;3.87;;;;;;;15.88;75.99;101008.84;5116328;27;20197;-83
2022/08/28 04:05:46;;;;;;;11.37;3.50;;;;;;;15.88;75.91;101013.38;5107888;27;20237;-84
2022/08/28 04:08:14;;;;;;;14.97;4.00;;;;;;;15.88;76.03;101016.06;5114083;27;20724;-84
2022/08/28 04:10:42;;;;;;;13.97;3.73;;;;;;;15.87;75.96;101012.50;5110565;27;20204;-83
2022/08/28 04:13:09;;;;;;;9.73;3.60;;;;;;;15.85;75.96;101014.47;5122580;27;20202;-83
2022/08/28 04:15:35;;;;;;;8.63;3.30;;;;;;;15.84;75.81;101014.56;5122980;27;20212;-83
2022/08/28 04:18:03;;;;;;;9.83;3.77;;;;;;;15.84;75.69;101017.25;5119575;27;20229;-82
2022/08/28 04:20:30;;;;;;;9.60;3.60;;;;;;;15.82;75.89;101025.44;5117927;27;20198;-82
2022/08/28 04:22:56;;;;;;;8.30;3.27;;;;;;;15.81;75.74;101018.34;5121591;27;20281;-83
2022/08/28 04:25:23;;;;;;;10.03;3.60;;;;;;;15.80;75.81;101015.78;5126754;27;20533;-82
2022/08/28 04:27:51;;;;;;;11.13;3.50;;;;;;;15.78;75.84;101013.22;5127526;27;20222;-81
2022/08/28 04:30:18;;;;;;;10.00;3.67;;;;;;;15.78;75.64;101015.91;5133885;27;20199;-81
2022/08/28 04:32:45;;;;;;;10.13;3.43;;;;;;;15.77;75.93;101016.03;5125595;27;20206;-82
2022/08/28 04:35:13;;;;;;;9.60;3.60;;;;;;;15.76;75.62;101012.53;5131122;27;20228;-82
2022/08/28 04:37:42;;;;;;;7.67;3.10;;;;;;;15.75;75.71;101023.38;5118159;27;20238;-81
2022/08/28 04:40:11;;;;;;;12.40;3.40;;;;;;;15.72;75.59;101027.16;5121573;27;20630;-82
2022/08/28 04:42:39;;;;;;;14.13;3.53;;;;;;;15.69;75.88;101019.34;5127966;27;20202;-81
2022/08/28 04:45:07;;;;;;;10.80;3.83;;;;;;;15.68;75.71;101020.31;5117628;27;20735;-82
2022/08/28 04:47:35;;;;;;;9.77;3.17;;;;;;;15.67;75.80;101026.66;5126670;27;20222;-82
2022/08/28 04:50:02;;;;;;;11.30;3.50;;;;;;;15.66;75.95;101029.47;5114137;27;20761;-84
2022/08/28 04:52:30;;;;;;;9.90;3.40;;;;;;;15.64;76.09;101032.25;5118941;27;20204;-85
2022/08/28 04:54:57;;;;;;;10.83;3.63;;;;;;;15.61;76.26;101027.13;5121298;27;20225;-83
2022/08/28 04:57:23;;;;;;;7.83;3.00;;;;;;;15.60;76.35;101025.41;5111791;28;20225;-83
2022/08/28 04:59:50;;;;;;;8.47;3.73;;;;;;;15.57;76.25;101028.38;5120832;27;20211;-84
2022/08/28 05:02:16;;;;;;;10.27;3.47;;;;;;;15.56;76.42;101032.03;5117854;27;20257;-84
2022/08/28 05:04:43;;;;;;;9.00;3.40;;;;;;;15.53;76.57;101035.75;5120881;27;20201;-84
2022/08/28 05:07:09;;;;;;;9.20;3.70;;;;;;;15.53;77.16;101034.91;5111285;27;20248;-83
2022/08/28 05:09:38;;;;;;;10.93;3.57;;;;;;;15.52;76.98;101033.19;5117497;27;20207;-83
2022/08/28 05:12:05;;;;;;;14.67;3.70;;;;;;;15.51;77.32;101029.66;5111372;27;20568;-82
2022/08/28 05:14:32;;;;;;;9.07;3.57;;;;;;;15.51;77.39;101026.97;5117105;27;20229;-83
2022/08/28 05:16:58;;;;;;;7.70;3.17;;;;;;;15.51;77.55;101042.22;5116968;27;20216;-83
2022/08/28 05:19:26;;;;;;;8.70;3.17;;;;;;;15.50;77.49;101035.13;5122328;27;20642;-84
2022/08/28 05:21:53;;;;;;;12.07;3.33;;;;;;;15.51;78.11;101039.53;5122446;27;20348;-84
2022/08/28 05:24:21;;;;;;;6.83;3.03;;;;;;;15.53;78.03;101037.59;5112359;27;20202;-84
2022/08/28 05:26:49;;;;;;;9.33;3.27;;;;;;;15.54;77.90;101037.47;5121702;27;20223;-84
2022/08/28 05:29:16;;;;;;;8.63;3.57;;;;;;;15.56;77.98;101037.41;5131283;27;20205;-84
2022/08/28 05:31:43;;;;;;;10.83;3.20;;;;;;;15.57;77.63;101037.28;5129162;27;20216;-84
2022/08/28 05:34:10;;;;;;;10.73;3.50;;;;;;;15.58;77.83;101039.00;5119857;27;20328;-84
2022/08/28 05:36:38;;;;;;;10.73;3.60;;;;;;;15.58;77.88;101039.00;5136325;27;20224;-85
2022/08/28 05:39:07;;;;;;;10.77;3.30;;;;;;;15.58;77.50;101038.13;5118730;27;20207;-84
2022/08/28 05:41:34;;;;;;;8.37;3.57;;;;;;;15.57;77.45;101041.78;5116654;27;20207;-85
2022/08/28 05:44:05;;;;;;;11.33;3.43;;;;;;;15.58;77.44;101041.66;5124163;27;20197;-85
2022/08/28 05:46:32;;;;;;;8.03;3.03;;;;;;;15.61;77.36;101051.28;5129300;27;20311;-84
2022/08/28 05:48:59;;;;;;;7.83;3.13;;;;;;;15.61;77.49;101048.59;5126005;27;20604;-82
2022/08/28 05:51:26;;;;;;;11.00;3.23;;;;;;;15.60;77.17;101047.75;5118607;27;20209;-84
2022/08/28 05:53:53;;;;;;;12.70;3.93;;;;;;;15.63;77.59;101049.34;5113357;27;20234;-82
2022/08/28 05:56:23;;;;;;;7.63;3.60;;;;;;;15.66;77.34;101045.56;5112866;27;20228;-83
2022/08/28 05:58:49;;;;;;;7.40;3.60;;;;;;;15.70;77.51;101055.09;5109773;27;20262;-83
2022/08/28 06:01:19;;;;;;;10.10;3.17;;;;;;;15.73;77.55;101058.41;5108363;27;20212;-83
2022/08/28 06:03:52;;;;;;;12.00;2.77;;;;;;;15.76;77.05;101060.00;5118153;27;20709;-82
2022/08/28 06:06:19;;;;;;;8.50;3.43;;;;;;;15.80;77.27;101065.00;5104373;27;20646;-84
2022/08/28 06:08:46;;;;;;;13.50;4.00;;;;;;;15.81;77.25;101061.31;5114259;27;20213;-83
2022/08/28 06:11:13;;;;;;;7.87;3.30;;;;;;;15.85;77.10;101067.31;5124302;27;20214;-83
2022/08/28 06:13:40;;;;;;;12.47;3.60;;;;;;;15.87;76.51;101073.44;5118828;27;20668;-83
2022/08/28 06:16:08;;;;;;;10.57;3.27;;;;;;;15.89;76.69;101068.78;5118702;27;20315;-83
2022/08/28 06:18:36;;;;;;;8.37;3.17;;;;;;;15.92;76.75;101072.09;5125009;27;20202;-83
2022/08/28 06:21:03;;;;;;;10.03;3.63;;;;;;;15.95;76.53;101076.34;5111712;27;20216;-83
2022/08/28 06:23:30;;;;;;;9.50;3.13;;;;;;;15.98;76.57;101076.97;5113357;27;20204;-83
2022/08/28 06:25:57;;;;;;;9.30;3.20;;;;;;;16.05;76.67;101073.81;5110282;27;20211;-83
2022/08/28 06:28:26;;;;;;;8.87;2.83;;;;;;;16.08;76.27;101073.56;5116870;27;20196;-84
2022/08/28 06:30:55;;;;;;;8.07;2.80;;;;;;;16.11;75.85;101076.88;5115379;27;20575;-83
2022/08/28 06:33:23;;;;;;;8.63;3.00;;;;;;;16.13;75.64;101076.72;5114638;27;20210;-83
2022/08/28 06:35:52;;;;;;;10.23;3.03;;;;;;;16.15;75.37;101075.63;5116170;27;20232;-84
2022/08/28 06:38:22;;;;;;;8.87;2.80;;;;;;;16.18;75.35;101086.13;5119196;27;20212;-85
2022/08/28 06:40:51;;;;;;;10.23;3.00;;;;;;;16.20;75.11;101083.31;5116955;27;20206;-85
2022/08/28 06:43:19;;;;;;;8.50;2.30;;;;;;;16.21;75.05;101088.59;5113196;27;20203;-85
2022/08/28 06:45:49;;;;;;;9.33;3.20;;;;;;;16.24;74.92;101092.88;5112983;27;20239;-84
2022/08/28 06:48:18;;;;;;;9.57;2.80;;;;;;;16.26;74.86;101093.59;5108836;27;20234;-86
2022/08/28 06:50:48;;;;;;;11.97;4.03;;;;;;;16.30;74.82;101101.28;5118359;28;20216;-83
2022/08/28 06:53:18;;;;;;;8.40;2.60;;;;;;;16.33;74.89;101094.78;5119803;27;20251;-83
2022/08/28 06:55:44;;;;;;;8.23;3.00;;;;;;;16.38;74.70;101099.81;5113946;27;20232;-84
2022/08/28 06:58:12;;;;;;;11.27;2.67;;;;;;;16.40;74.55;101096.03;5114624;27;20582;-85
2022/08/28 07:00:39;;;;;;;9.30;2.60;;;;;;;16.42;74.13;101104.81;5116520;27;20209;-85
2022/08/28 07:03:06;;;;;;;7.23;2.83;;;;;;;16.44;73.93;101104.69;5113260;27;20203;-85
2022/08/28 07:05:32;;;;;;;7.37;2.93;;;;;;;16.47;73.87;101105.31;5111267;27;20199;-84
2022/08/28 07:07:59;;;;;;;8.47;2.90;;;;;;;16.50;73.78;101112.25;5116292;27;20217;-84
2022/08/28 07:10:30;;;;;;;9.90;3.40;;;;;;;16.55;73.64;101110.06;5114859;27;20203;-83
2022/08/28 07:12:57;;;;;;;7.03;2.43;;;;;;;16.60;73.80;101114.09;5118644;27;20513;-82
2022/08/28 07:15:24;;;;;;;9.43;3.23;;;;;;;16.67;73.68;101109.94;5112890;27;20300;-84
2022/08/28 07:17:50;;;;;;;11.47;3.20;;;;;;;16.72;73.23;101112.25;5109548;27;20309;-83
2022/08/28 07:20:17;;;;;;;6.47;2.80;;;;;;;16.77;73.04;101115.44;5109848;27;20214;-84
2022/08/28 07:22:43;;;;;;;11.07;2.83;;;;;;;16.83;73.06;101114.09;5108432;28;20870;-84
2022/08/28 07:25:10;;;;;;;8.87;2.40;;;;;;;16.89;72.87;101113.56;5110023;27;20219;-84
2022/08/28 07:27:38;;;;;;;8.87;2.80;;;;;;;16.95;72.59;101116.63;5115408;27;20248;-82
2022/08/28 07:30:07;;;;;;;11.20;2.70;;;;;;;16.98;71.88;101119.06;5106430;28;20207;-81
2022/08/28 07:32:34;;;;;;;11.47;3.00;;;;;;;17.02;71.59;101119.63;5108203;28;20875;-81
2022/08/28 07:35:00;;;;;;;9.10;2.47;;;;;;;17.05;71.16;101110.47;5109742;27;20240;-83
2022/08/28 07:37:27;;;;;;;8.63;2.93;;;;;;;17.08;70.98;101112.91;5107617;28;20319;-83
2022/08/28 07:39:54;;;;;;;8.60;2.80;;;;;;;17.11;70.78;101112.66;5105853;28;20206;-84
2022/08/28 07:45:02;;;;;;;9.10;2.67;;;;;;;17.21;70.36;101109.03;5099700;28;20230;-83
2022/08/28 07:47:30;;;;;;;12.17;3.03;;;;;;;17.25;69.94;101113.19;5106290;28;20458;-83
2022/08/28 07:49:59;;;;;;;8.30;2.60;;;;;;;17.28;69.82;101115.63;5113051;28;20200;-82
2022/08/28 07:52:26;;;;;;;6.10;2.10;;;;;;;17.35;69.60;101106.06;5104450;28;20268;-82
2022/08/28 07:54:52;;;;;;;9.47;2.50;;;;;;;17.44;69.50;101108.94;5108595;28;20227;-82
2022/08/28 07:57:19;;;;;;;9.53;2.33;;;;;;;17.51;69.09;101123.63;5105253;28;20216;-82
2022/08/28 07:59:46;;;;;;;8.37;2.83;;;;;;;17.60;68.73;101120.13;5110579;28;20212;-83
2022/08/28 08:02:15;;;;;;;8.47;2.20;;;;;;;17.70;68.51;101118.41;5102568;28;20222;-84
2022/08/28 08:04:42;;;;;;;9.03;2.40;;;;;;;17.76;67.81;101128.63;5105547;28;20284;-83
2022/08/28 08:07:11;;;;;;;6.93;2.07;;;;;;;17.82;67.21;101120.03;5109813;28;20220;-83
2022/08/28 08:09:40;;;;;;;10.03;2.53;;;;;;;17.86;66.88;101124.19;5109746;27;20201;-83
2022/08/28 08:12:07;;;;;;;6.47;2.50;;;;;;;17.93;66.78;101119.94;5109376;28;20223;-82
2022/08/28 08:14:34;;;;;;;8.27;3.03;;;;;;;17.99;66.41;101122.13;5104027;28;20230;-82
2022/08/28 08:17:03;;;;;;;8.33;2.23;;;;;;;18.09;66.33;101122.19;5103981;28;20216;-82
2022/08/28 08:19:31;;;;;;;10.17;2.37;;;;;;;18.16;65.80;101123.34;5103038;28;21369;-82
2022/08/28 08:21:57;;;;;;;7.73;2.60;;;;;;;18.28;65.89;101118.72;5107798;28;20239;-83
2022/08/28 08:24:25;;;;;;;10.20;2.60;;;;;;;18.40;65.06;101125.72;5105356;28;20214;-82
2022/08/28 08:26:53;;;;;;;7.63;2.63;;;;;;;18.49;64.29;101119.50;5103778;28;20773;-82
2022/08/28 08:29:21;;;;;;;9.10;2.47;;;;;;;18.54;63.80;101117.25;5107786;28;20204;-83
2022/08/28 08:31:55;;;;;;;6.40;1.80;;;;;;;18.65;63.65;101117.16;5100693;28;20577;-82
2022/08/28 08:34:22;;;;;;;9.17;2.40;;;;;;;18.79;63.35;101121.34;5103696;28;20198;-83
2022/08/28 08:36:50;;;;;;;9.23;2.60;;;;;;;18.94;63.07;101119.97;5098194;28;21022;-82
2022/08/28 08:39:16;;;;;;;12.47;2.77;;;;;;;19.11;61.74;101114.84;5101928;28;20212;-84
2022/08/28 08:41:47;;;;;;;11.40;2.33;;;;;;;19.24;61.03;101116.28;5104506;28;20595;-83
2022/08/28 08:44:23;;;;;;;6.80;2.37;;;;;;;19.30;60.27;101122.97;5104416;28;20245;-83
2022/08/28 08:46:58;;;;;;;6.73;2.20;;;;;;;19.34;58.50;101111.75;5118448;27;20237;-83
2022/08/28 08:49:29;;;;;;;4.60;2.60;;;;;;;19.39;58.83;101114.00;5109473;28;20203;-83
2022/08/28 08:52:15;;;;;;;6.23;2.33;;;;;;;19.55;59.54;101113.44;5115693;27;20199;-83
2022/08/28 08:54:42;;;;;;;8.93;2.53;;;;;;;19.75;59.77;101117.84;5117022;27;20297;-84
2022/08/28 08:57:10;;;;;;;6.67;2.30;;;;;;;19.94;58.95;101114.25;5121924;27;20225;-84
2022/08/28 08:59:38;;;;;;;9.63;2.63;;;;;;;20.06;58.14;101110.38;5124830;27;20200;-82
2022/08/28 09:02:12;;;;;;;5.57;2.33;;;;;;;20.15;57.45;101114.03;5122703;27;20217;-83
2022/08/28 09:04:45;;;;;;;5.63;2.23;;;;;;;20.16;56.83;101118.44;5120080;27;20195;-84
2022/08/28 09:07:20;;;;;;;7.83;2.53;;;;;;;20.14;56.92;101121.31;5114736;27;20225;-85
2022/08/28 09:09:51;;;;;;;8.10;2.60;;;;;;;20.09;56.62;101119.03;5114698;27;20248;-84
2022/08/28 09:12:19;;;;;;;6.93;2.60;;;;;;;20.04;56.40;101121.34;5126774;27;20200;-85
2022/08/28 09:14:56;;;;;;;7.07;2.20;;;;;;;20.06;56.49;101118.50;5116777;27;20229;-85
2022/08/28 09:17:28;;;;;;;9.27;2.20;;;;;;;20.16;56.82;101111.19;5113846;27;20226;-85
2022/08/28 09:19:55;;;;;;;9.27;2.43;;;;;;;20.29;56.18;101106.28;5124078;27;20213;-83
2022/08/28 09:22:23;;;;;;;5.53;2.03;;;;;;;20.39;55.57;101109.00;5116989;28;20216;-84
2022/08/28 09:24:50;;;;;;;8.67;2.60;;;;;;;20.44;55.15;101112.09;5122789;27;20207;-83
2022/08/28 09:27:24;;;;;;;5.80;2.10;;;;;;;20.42;54.49;101112.25;5119610;27;20311;-84
2022/08/28 09:29:56;;;;;;;5.37;2.20;;;;;;;20.41;54.30;101105.16;5110646;27;20203;-83
2022/08/28 09:32:25;;;;;;;8.67;2.17;;;;;;;20.49;54.14;101109.78;5111807;27;20194;-83
2022/08/28 09:35:06;;;;;;;5.00;2.30;;;;;;;20.61;53.67;101116.69;5111323;27;20214;-84
2022/08/28 09:37:36;;;;;;;4.33;1.80;;;;;;;20.69;52.98;101116.81;5114427;27;20233;-83
2022/08/28 09:40:22;;;;;;;4.15;2.03;;;;;;;20.76;52.74;101115.22;5111504;27;20198;-83
2022/08/28 09:45:51;;;;;;;8.57;2.20;;;;;;;20.84;52.22;101116.28;5105678;28;20708;-84
2022/08/28 09:48:21;;;;;;;5.23;2.20;;;;;;;20.79;51.47;101123.00;5109036;27;20204;-84
2022/08/28 09:50:58;;;;;;;5.60;2.07;;;;;;;20.82;52.01;101115.59;5114244;27;20301;-84
2022/08/28 09:53:29;;;;;;;7.57;2.10;;;;;;;20.91;51.97;101103.88;5118514;27;20208;-84
2022/08/28 09:56:05;;;;;;;6.17;2.13;;;;;;;20.97;51.51;101116.78;5110091;27;20217;-84
2022/08/28 09:58:36;;;;;;;6.77;2.23;;;;;;;21.02;51.41;101111.75;5119563;27;20221;-83
2022/08/28 10:01:11;;;;;;;6.95;2.25;;;;;;;21.09;51.25;101111.00;5106774;27;20215;-82
2022/08/28 10:03:46;;;;;;;3.75;1.92;;;;;;;21.17;50.86;101110.22;5109525;27;20201;-81
2022/08/28 10:06:18;;;;;;;6.78;1.63;;;;;;;21.21;50.84;101111.66;5103351;28;20224;-82
2022/08/28 10:08:59;;;;;;;6.32;2.25;;;;;;;21.25;50.54;101107.63;5106439;27;20209;-80
2022/08/28 10:11:37;;;;;;;5.47;1.73;;;;;;;21.32;50.68;101114.09;5105318;27;20199;-81
2022/08/28 10:14:17;;;;;;;7.63;2.50;;;;;;;21.41;49.83;101117.75;5104586;27;20193;-80
2022/08/28 10:16:54;;;;;;;5.10;2.20;;;;;;;21.53;49.32;101108.38;5103741;28;20238;-81
2022/08/28 10:19:36;;;;;;;8.13;2.58;;;;;;;21.66;49.30;101114.25;5103630;27;20567;-81
2022/08/28 10:22:14;;;;;;;7.43;2.10;;;;;;;21.80;48.91;101112.84;5103385;27;20256;-81
2022/08/28 10:24:58;;;;;;;4.07;1.48;;;;;;;21.90;48.64;101113.56;5104933;27;20208;-82
2022/08/28 10:27:41;;;;;;;4.63;2.20;;;;;;;21.99;48.39;101112.63;5100248;28;20429;-81
2022/08/28 10:30:13;;;;;;;4.50;1.95;;;;;;;22.04;47.89;101102.16;5108661;27;20271;-81
2022/08/28 10:33:11;;;;;;;9.48;2.15;;;;;;;22.07;48.23;101115.41;5110361;27;20199;-81
2022/08/28 10:35:49;;;;;;;5.93;1.70;;;;;;;22.11;47.72;101107.81;5111523;27;20303;-82
2022/08/28 10:38:20;;;;;;;4.82;1.50;;;;;;;22.15;47.60;101112.75;5110567;27;20204;-83
2022/08/28 10:40:55;;;;;;;4.53;1.60;;;;;;;22.23;47.39;101106.50;5111440;27;20487;-82
2022/08/28 10:43:30;;;;;;;5.43;2.28;;;;;;;22.31;47.11;101109.28;5109652;28;20230;-82
2022/08/28 10:46:04;;;;;;;4.63;1.85;;;;;;;22.39;47.19;101108.47;5112919;27;20644;-82
2022/08/28 10:48:39;;;;;;;9.77;2.00;;;;;;;22.43;47.41;101117.97;5103942;27;20203;-83
2022/08/28 10:51:14;;;;;;;7.15;2.42;;;;;;;22.51;47.22;101112.59;5106236;27;20560;-83
2022/08/28 10:53:45;;;;;;;6.85;1.83;;;;;;;22.58;46.60;101110.91;5104008;27;20286;-82
2022/08/28 10:56:17;;;;;;;5.97;2.00;;;;;;;22.62;46.22;101109.56;5109128;27;20237;-83
2022/08/28 10:58:47;;;;;;;6.72;1.90;;;;;;;22.71;46.14;101107.75;5110831;27;20229;-83
2022/08/28 11:01:23;;;;;;;5.30;1.85;;;;;;;22.79;45.76;101105.06;5111173;28;20204;-84
2022/08/28 11:03:51;;;;;;;4.70;1.80;;;;;;;22.87;45.14;101109.69;5107925;27;20679;-83
2022/08/28 11:06:27;;;;;;;5.40;1.73;;;;;;;22.91;44.92;101108.34;5104830;28;20223;-82
2022/08/28 11:09:23;;;;;;;4.65;2.05;;;;;;;22.96;44.69;101106.81;5116708;27;20209;-82
2022/08/28 11:11:49;;;;;;;3.25;1.63;;;;;;;23.01;44.07;101103.63;5112730;27;20203;-82
2022/08/28 11:14:32;;;;;;;6.95;2.03;;;;;;;23.02;43.95;101113.47;5108399;27;20223;-83
2022/08/28 11:17:02;;;;;;;6.43;1.95;;;;;;;23.00;43.83;101118.22;5108028;27;20284;-81
2022/08/28 11:20:03;;;;;;;5.65;2.15;;;;;;;23.06;43.97;101112.13;5108754;27;20208;-82
2022/08/28 11:22:36;;;;;;;5.38;2.00;;;;;;;23.13;43.09;101116.69;5107863;28;20222;-82
2022/08/28 11:25:13;;;;;;;6.55;2.15;;;;;;;23.25;43.30;101110.97;5107876;27;20201;-82
2022/08/28 11:28:23;;;;;;;7.28;1.98;;;;;;;23.37;43.32;101115.03;5110049;27;20314;-82
2022/08/28 11:31:10;;;;;;;5.10;1.90;;;;;;;23.41;42.46;101111.81;5114998;27;20207;-83
2022/08/28 11:33:40;;;;;;;5.57;1.85;;;;;;;23.52;42.54;101108.78;5113802;27;20199;-82
2022/08/28 11:36:11;;;;;;;4.40;1.65;;;;;;;23.60;42.34;101112.53;5113596;27;20313;-82
2022/08/28 11:39:21;;;;;;;6.18;2.05;;;;;;;23.63;41.98;101113.06;5106635;28;20202;-83